createdAt,value
2023-04-19T00:53:04.918Z,100784.56
2023-04-19T00:59:19.925Z,100841.06
2023-04-19T01:11:15.529Z,100868.66
2023-04-19T01:16:38.049Z,100855.56
2023-04-19T02:37:37.309Z,100748.66
2023-04-19T02:49:57.918Z,100755.31
2023-04-19T03:01:52.829Z,100719.50
2023-04-19T03:07:54.510Z,100725.00
2023-04-19T03:53:37.616Z,100830.69
2023-04-19T04:06:27.468Z,100843.84
2023-04-19T04:31:09.434Z,100790.47
2023-04-19T04:36:20.098Z,100755.25
2023-04-19T04:41:53.830Z,100824.66
2023-04-19T04:48:23.344Z,100722.97
2023-04-19T04:54:29.120Z,100830.44
2023-04-19T04:59:49.564Z,100777.50
2023-04-19T05:18:32.955Z,100752.56
2023-04-19T05:23:41.386Z,100815.53
2023-04-19T05:29:19.007Z,100774.94
2023-04-19T05:34:46.622Z,100820.66
2023-04-19T05:40:14.206Z,100784.97
2023-04-19T05:45:30.756Z,100815.19
2023-04-19T05:50:55.751Z,100757.91
2023-04-19T05:56:20.491Z,100749.97
2023-04-19T06:01:48.746Z,100808.75
2023-04-19T06:07:22.298Z,100737.81
2023-04-19T06:12:31.692Z,100787.97
2023-04-19T06:17:31.318Z,100794.34
2023-04-19T06:22:33.497Z,100724.81
2023-04-19T06:27:33.604Z,100816.13
2023-04-19T06:32:42.505Z,100791.53
2023-04-19T06:43:55.644Z,100831.97
2023-04-19T06:56:46.218Z,100815.75
2023-04-19T07:02:44.766Z,100717.94
2023-04-19T07:09:07.630Z,100830.88
2023-04-19T07:21:59.832Z,100836.88
2023-04-19T07:28:10.174Z,100773.78
2023-04-19T07:34:08.283Z,100746.09
2023-04-19T07:39:29.806Z,100766.53
2023-04-19T07:44:50.964Z,100825.97
2023-04-19T07:50:00.355Z,100844.19
2023-04-19T07:55:11.489Z,100812.94
2023-04-19T08:00:29.996Z,100845.56
2023-04-19T08:05:45.887Z,100787.69
2023-04-19T08:11:06.159Z,100738.31
2023-04-19T08:21:31.327Z,100836.44
2023-04-19T08:26:44.542Z,100754.41
2023-04-19T08:31:49.529Z,100828.72
2023-04-19T08:37:04.053Z,100822.72
2023-04-19T08:42:32.930Z,100726.88
2023-04-19T08:52:52.006Z,100734.53
2023-04-19T08:57:53.656Z,100753.53
2023-04-19T09:02:58.823Z,100753.53
2023-04-19T09:08:19.350Z,100739.97
2023-04-19T09:13:22.816Z,100757.44
2023-04-19T09:18:20.295Z,100745.84
2023-04-19T09:23:19.090Z,100760.78
2023-04-19T09:28:16.068Z,100734.81
2023-04-19T09:44:44.689Z,100785.88
2023-04-19T09:49:37.618Z,100810.16
2023-04-19T09:54:45.561Z,100812.06
2023-04-19T09:59:43.556Z,100806.44
2023-04-19T10:05:02.656Z,100794.16
2023-04-19T10:10:15.725Z,100786.56
2023-04-19T10:15:14.737Z,100806.41
2023-04-19T10:20:20.593Z,100764.88
2023-04-19T10:25:18.229Z,100787.91
2023-04-19T10:30:21.428Z,100764.69
2023-04-19T10:35:20.741Z,100781.06
2023-04-19T10:40:55.845Z,100737.81
2023-04-19T10:45:53.489Z,100792.44
2023-04-19T10:51:02.080Z,100791.66
2023-04-19T10:55:58.955Z,100788.75
2023-04-19T11:01:28.897Z,100774.16
2023-04-19T11:06:27.489Z,100791.19
2023-04-19T11:11:25.128Z,100766.75
2023-04-19T11:16:31.222Z,100782.88
2023-04-19T11:21:40.340Z,100731.63
2023-04-19T11:26:37.407Z,100736.53
2023-04-19T11:31:35.120Z,100767.56
2023-04-19T11:36:36.137Z,100764.19
2023-04-19T11:41:39.168Z,100750.72
2023-04-19T11:46:37.008Z,100729.41
2023-04-19T11:51:34.864Z,100745.16
2023-04-19T11:56:32.180Z,100707.63
2023-04-19T12:01:32.818Z,100738.50
2023-04-19T12:06:32.983Z,100705.97
2023-04-19T12:11:44.044Z,100712.44
2023-04-19T12:16:42.281Z,100716.06
2023-04-19T12:21:41.786Z,100693.38
2023-04-19T12:26:55.767Z,100654.28
2023-04-19T12:31:55.049Z,100629.16
2023-04-19T12:36:51.913Z,100681.00
2023-04-19T12:41:49.164Z,100681.28
2023-04-19T12:46:49.682Z,100654.16
2023-04-19T12:51:47.771Z,100667.66
2023-04-19T12:56:44.777Z,100645.19
2023-04-19T13:01:42.097Z,100622.31
2023-04-19T13:06:43.774Z,100666.69
2023-04-19T13:11:41.567Z,100650.09
2023-04-19T13:16:43.824Z,100612.31
2023-04-19T13:21:46.004Z,100631.34
2023-04-19T13:26:45.774Z,100598.56
2023-04-19T13:31:43.572Z,100572.75
2023-04-19T13:36:41.850Z,100641.69
2023-04-19T13:41:38.717Z,100623.06
2023-04-19T13:46:40.267Z,100634.00
2023-04-19T13:51:48.968Z,100611.97
2023-04-19T13:56:52.360Z,100630.50
2023-04-19T14:01:50.851Z,100627.69
2023-04-19T14:06:48.267Z,100615.72
2023-04-19T14:11:46.447Z,100631.59
2023-04-19T14:16:44.115Z,100617.44
2023-04-19T14:21:42.750Z,100624.19
2023-04-19T14:26:39.836Z,100618.00
2023-04-19T14:31:36.742Z,100625.44
2023-04-19T14:36:33.838Z,100621.38
2023-04-19T14:41:31.712Z,100624.19
2023-04-19T14:46:28.947Z,100610.44
2023-04-19T14:51:29.760Z,100606.19
2023-04-19T14:56:26.927Z,100616.44
2023-04-19T15:01:24.629Z,100573.91
2023-04-19T15:06:21.529Z,100619.78
2023-04-19T15:11:18.390Z,100623.47
2023-04-19T15:16:15.517Z,100590.47
2023-04-19T15:21:12.997Z,100576.44
2023-04-19T15:26:09.853Z,100621.19
2023-04-19T15:31:07.801Z,100617.13
2023-04-19T15:36:05.628Z,100596.09
2023-04-19T15:41:03.260Z,100555.56
2023-04-19T15:46:00.354Z,100593.28
2023-04-19T15:50:57.354Z,100596.81
2023-04-19T15:55:55.943Z,100607.06
2023-04-19T16:00:54.138Z,100605.78
2023-04-19T16:05:50.966Z,100613.38
2023-04-19T16:10:50.244Z,100616.75
2023-04-19T16:15:47.043Z,100550.31
2023-04-19T16:20:44.513Z,100547.66
2023-04-19T16:25:41.350Z,100602.97
2023-04-19T16:30:38.370Z,100596.34
2023-04-19T16:35:35.536Z,100599.13
2023-04-19T16:40:33.059Z,100592.50
2023-04-19T16:45:29.897Z,100552.69
2023-04-19T16:50:26.976Z,100585.69
2023-04-19T16:55:23.851Z,100591.09
2023-04-19T17:00:21.735Z,100574.88
2023-04-19T17:05:18.737Z,100600.81
2023-04-19T17:10:15.834Z,100626.69
2023-04-19T17:15:12.883Z,100568.03
2023-04-19T17:20:11.230Z,100638.50
2023-04-19T17:25:13.090Z,100541.47
2023-04-19T17:30:10.731Z,100614.56
2023-04-19T17:35:08.291Z,100633.47
2023-04-19T17:40:07.609Z,100656.31
2023-04-19T17:45:06.294Z,100604.53
2023-04-19T17:50:07.925Z,100622.66
2023-04-19T17:55:06.684Z,100634.81
2023-04-19T18:00:06.946Z,100629.44
2023-04-19T18:05:06.911Z,100611.72
2023-04-19T18:10:04.965Z,100597.03
2023-04-19T18:15:03.374Z,100632.16
2023-04-19T18:20:01.475Z,100719.88
2023-04-19T18:24:58.219Z,100730.91
2023-04-19T18:29:55.192Z,100736.56
2023-04-19T18:34:52.840Z,100742.63
2023-04-19T18:39:49.938Z,100681.88
2023-04-19T18:44:53.738Z,100719.41
2023-04-19T18:50:04.432Z,100754.56
2023-04-19T18:55:03.019Z,100705.78
2023-04-19T19:00:00.856Z,100758.38
2023-04-19T19:05:01.703Z,100728.25
2023-04-19T19:10:12.218Z,100698.28
2023-04-19T19:15:15.118Z,100716.47
2023-04-19T19:20:15.792Z,100715.78
2023-04-19T19:25:15.782Z,100738.66
2023-04-19T19:30:13.659Z,100653.50
2023-04-19T19:35:10.573Z,100733.78
2023-04-19T19:40:11.261Z,100733.91
2023-04-19T19:45:09.428Z,100720.47
2023-04-19T19:55:11.679Z,100721.44
2023-04-19T20:00:32.031Z,100729.78
2023-04-19T20:05:27.775Z,100726.09
2023-04-19T20:10:25.293Z,100741.31
2023-04-19T20:15:22.022Z,100693.97
2023-04-19T20:20:18.924Z,100735.03
2023-04-19T20:25:15.885Z,100639.72
2023-04-19T20:30:13.737Z,100755.28
2023-04-19T20:35:11.642Z,100705.25
2023-04-19T20:40:13.129Z,100762.25
2023-04-19T20:45:10.287Z,100735.47
2023-04-19T20:50:08.615Z,100741.78
2023-04-19T20:55:06.524Z,100732.81
2023-04-19T21:00:04.948Z,100752.81
2023-04-19T21:05:01.826Z,100738.19
2023-04-19T21:09:59.419Z,100726.00
2023-04-19T21:14:56.284Z,100745.47
2023-04-19T21:19:53.043Z,100691.31
2023-04-19T21:24:49.828Z,100743.09
2023-04-19T21:29:47.443Z,100754.28
2023-04-19T21:34:44.463Z,100740.66
2023-04-19T21:39:41.261Z,100745.97
2023-04-19T21:44:41.130Z,100691.72
2023-04-19T21:49:39.198Z,100682.28
2023-04-19T21:54:36.025Z,100739.47
2023-04-19T21:59:35.065Z,100732.72
2023-04-19T22:04:31.922Z,100741.03
2023-04-19T22:09:30.189Z,100743.59
2023-04-19T22:14:27.186Z,100686.81
2023-04-19T22:19:24.162Z,100742.75
2023-04-19T22:24:21.586Z,100723.50
2023-04-19T22:29:19.435Z,100745.22
2023-04-19T22:34:16.455Z,100750.31
2023-04-19T22:39:13.435Z,100753.66
2023-04-19T22:44:10.393Z,100738.31
2023-04-19T22:49:09.425Z,100718.31
2023-04-19T22:54:06.204Z,100740.75
2023-04-19T22:59:02.862Z,100745.63
2023-04-19T23:03:59.776Z,100715.63
2023-04-19T23:08:57.343Z,100732.03
2023-04-19T23:13:54.240Z,100690.75
2023-04-19T23:18:51.358Z,100739.41
2023-04-19T23:23:49.740Z,100748.09
2023-04-19T23:28:47.161Z,100692.38
2023-04-19T23:33:45.905Z,100740.75
2023-04-19T23:38:42.617Z,100734.41
2023-04-19T23:43:39.351Z,100729.22
2023-04-19T23:48:36.670Z,100710.19
2023-04-19T23:53:33.422Z,100724.63
2023-04-19T23:58:30.244Z,100665.72
